sensor_id;sensor_type;location;lat;lon;timestamp;P1;durP1;ratioP1;P2;durP2;ratioP2
46815;SDS011;32787;53.316;8.670;2023-12-04T00:00:37;46.13;;;20.02;;
46815;SDS011;32787;53.316;8.670;2023-12-04T00:03:02;48.92;;;21.55;;
46815;SDS011;32787;53.316;8.670;2023-12-04T00:05:28;42.67;;;19.90;;
46815;SDS011;32787;53.316;8.670;2023-12-04T00:07:54;44.67;;;20.52;;
46815;SDS011;32787;53.316;8.670;2023-12-04T00:10:19;48.10;;;20.48;;
46815;SDS011;32787;53.316;8.670;2023-12-04T00:12:45;42.22;;;19.92;;
46815;SDS011;32787;53.316;8.670;2023-12-04T00:15:11;43.28;;;20.45;;
46815;SDS011;32787;53.316;8.670;2023-12-04T00:17:37;44.28;;;20.02;;
46815;SDS011;32787;53.316;8.670;2023-12-04T00:20:08;43.33;;;19.10;;
46815;SDS011;32787;53.316;8.670;2023-12-04T00:22:34;45.60;;;20.10;;
46815;SDS011;32787;53.316;8.670;2023-12-04T00:25:01;43.85;;;19.55;;
46815;SDS011;32787;53.316;8.670;2023-12-04T00:27:31;43.58;;;19.52;;
46815;SDS011;32787;53.316;8.670;2023-12-04T00:29:57;44.50;;;20.60;;
46815;SDS011;32787;53.316;8.670;2023-12-04T00:32:23;45.25;;;20.13;;
46815;SDS011;32787;53.316;8.670;2023-12-04T00:34:49;46.60;;;19.60;;
46815;SDS011;32787;53.316;8.670;2023-12-04T00:37:14;39.60;;;17.80;;
46815;SDS011;32787;53.316;8.670;2023-12-04T00:39:40;40.70;;;19.80;;
46815;SDS011;32787;53.316;8.670;2023-12-04T00:42:06;44.08;;;20.27;;
46815;SDS011;32787;53.316;8.670;2023-12-04T00:44:31;43.53;;;20.02;;
46815;SDS011;32787;53.316;8.670;2023-12-04T00:46:57;48.10;;;20.30;;
46815;SDS011;32787;53.316;8.670;2023-12-04T00:49:23;45.95;;;20.80;;
46815;SDS011;32787;53.316;8.670;2023-12-04T00:51:49;44.60;;;20.95;;
46815;SDS011;32787;53.316;8.670;2023-12-04T00:54:14;39.17;;;18.35;;
46815;SDS011;32787;53.316;8.670;2023-12-04T00:56:40;42.80;;;19.10;;
46815;SDS011;32787;53.316;8.670;2023-12-04T00:59:09;41.85;;;19.33;;
46815;SDS011;32787;53.316;8.670;2023-12-04T01:01:36;45.33;;;20.35;;
46815;SDS011;32787;53.316;8.670;2023-12-04T01:04:02;47.50;;;21.27;;
46815;SDS011;32787;53.316;8.670;2023-12-04T01:06:28;42.80;;;19.95;;
46815;SDS011;32787;53.316;8.670;2023-12-04T01:08:54;43.47;;;20.02;;
46815;SDS011;32787;53.316;8.670;2023-12-04T01:11:20;44.45;;;20.55;;
46815;SDS011;32787;53.316;8.670;2023-12-04T01:13:46;45.30;;;20.38;;
46815;SDS011;32787;53.316;8.670;2023-12-04T01:16:12;46.20;;;20.80;;
46815;SDS011;32787;53.316;8.670;2023-12-04T01:18:38;44.58;;;19.42;;
46815;SDS011;32787;53.316;8.670;2023-12-04T01:21:04;43.55;;;20.42;;
46815;SDS011;32787;53.316;8.670;2023-12-04T01:23:29;43.63;;;19.67;;
46815;SDS011;32787;53.316;8.670;2023-12-04T01:25:55;49.00;;;19.85;;
46815;SDS011;32787;53.316;8.670;2023-12-04T01:28:21;45.45;;;20.67;;
46815;SDS011;32787;53.316;8.670;2023-12-04T01:30:46;40.83;;;18.42;;
46815;SDS011;32787;53.316;8.670;2023-12-04T01:33:12;44.28;;;19.33;;
46815;SDS011;32787;53.316;8.670;2023-12-04T01:35:38;45.47;;;20.52;;
46815;SDS011;32787;53.316;8.670;2023-12-04T01:38:03;40.63;;;19.48;;
46815;SDS011;32787;53.316;8.670;2023-12-04T01:40:29;43.08;;;20.25;;
46815;SDS011;32787;53.316;8.670;2023-12-04T01:42:54;40.13;;;18.75;;
46815;SDS011;32787;53.316;8.670;2023-12-04T01:45:20;42.00;;;19.00;;
46815;SDS011;32787;53.316;8.670;2023-12-04T01:47:46;38.58;;;18.90;;
46815;SDS011;32787;53.316;8.670;2023-12-04T01:50:12;43.72;;;19.65;;
46815;SDS011;32787;53.316;8.670;2023-12-04T01:52:40;40.72;;;19.00;;
46815;SDS011;32787;53.316;8.670;2023-12-04T01:55:06;44.92;;;18.60;;
46815;SDS011;32787;53.316;8.670;2023-12-04T01:57:34;40.72;;;19.25;;
46815;SDS011;32787;53.316;8.670;2023-12-04T02:00:00;42.10;;;18.77;;
46815;SDS011;32787;53.316;8.670;2023-12-04T02:02:29;43.30;;;20.60;;
46815;SDS011;32787;53.316;8.670;2023-12-04T02:04:55;45.85;;;19.48;;
46815;SDS011;32787;53.316;8.670;2023-12-04T02:07:22;40.00;;;18.85;;
46815;SDS011;32787;53.316;8.670;2023-12-04T02:09:48;37.65;;;17.33;;
46815;SDS011;32787;53.316;8.670;2023-12-04T02:12:14;39.78;;;17.42;;
46815;SDS011;32787;53.316;8.670;2023-12-04T02:14:39;38.70;;;17.92;;
46815;SDS011;32787;53.316;8.670;2023-12-04T02:17:05;42.90;;;19.38;;
46815;SDS011;32787;53.316;8.670;2023-12-04T02:19:33;40.45;;;18.45;;
46815;SDS011;32787;53.316;8.670;2023-12-04T02:21:59;46.08;;;18.83;;
46815;SDS011;32787;53.316;8.670;2023-12-04T02:24:24;40.03;;;19.65;;
46815;SDS011;32787;53.316;8.670;2023-12-04T02:26:52;42.20;;;18.35;;
46815;SDS011;32787;53.316;8.670;2023-12-04T02:29:31;38.83;;;17.55;;
46815;SDS011;32787;53.316;8.670;2023-12-04T02:32:02;41.08;;;17.98;;
46815;SDS011;32787;53.316;8.670;2023-12-04T02:34:30;39.03;;;18.10;;
46815;SDS011;32787;53.316;8.670;2023-12-04T02:36:58;37.95;;;18.73;;
46815;SDS011;32787;53.316;8.670;2023-12-04T02:39:26;39.92;;;18.05;;
46815;SDS011;32787;53.316;8.670;2023-12-04T02:41:52;37.20;;;18.25;;
46815;SDS011;32787;53.316;8.670;2023-12-04T02:44:18;40.92;;;17.75;;
46815;SDS011;32787;53.316;8.670;2023-12-04T02:46:43;41.80;;;18.10;;
46815;SDS011;32787;53.316;8.670;2023-12-04T02:49:09;37.00;;;16.10;;
46815;SDS011;32787;53.316;8.670;2023-12-04T02:51:35;39.70;;;18.00;;
46815;SDS011;32787;53.316;8.670;2023-12-04T02:54:00;41.28;;;17.27;;
46815;SDS011;32787;53.316;8.670;2023-12-04T02:56:26;45.28;;;20.00;;
46815;SDS011;32787;53.316;8.670;2023-12-04T02:58:52;40.28;;;17.23;;
46815;SDS011;32787;53.316;8.670;2023-12-04T03:01:17;42.85;;;19.17;;
46815;SDS011;32787;53.316;8.670;2023-12-04T03:03:43;40.80;;;18.52;;
46815;SDS011;32787;53.316;8.670;2023-12-04T03:06:08;40.28;;;17.92;;
46815;SDS011;32787;53.316;8.670;2023-12-04T03:08:34;38.05;;;18.02;;
46815;SDS011;32787;53.316;8.670;2023-12-04T03:11:01;36.42;;;17.63;;
46815;SDS011;32787;53.316;8.670;2023-12-04T03:13:28;37.55;;;17.30;;
46815;SDS011;32787;53.316;8.670;2023-12-04T03:15:54;42.75;;;18.02;;
46815;SDS011;32787;53.316;8.670;2023-12-04T03:18:19;36.15;;;16.25;;
46815;SDS011;32787;53.316;8.670;2023-12-04T03:20:45;39.30;;;17.60;;
46815;SDS011;32787;53.316;8.670;2023-12-04T03:23:11;35.38;;;15.90;;
46815;SDS011;32787;53.316;8.670;2023-12-04T03:25:36;36.35;;;16.55;;
46815;SDS011;32787;53.316;8.670;2023-12-04T03:28:02;37.28;;;16.02;;
46815;SDS011;32787;53.316;8.670;2023-12-04T03:30:27;37.55;;;17.02;;
46815;SDS011;32787;53.316;8.670;2023-12-04T03:32:53;36.28;;;16.95;;
46815;SDS011;32787;53.316;8.670;2023-12-04T03:35:19;32.45;;;15.68;;
46815;SDS011;32787;53.316;8.670;2023-12-04T03:37:44;38.58;;;16.08;;
46815;SDS011;32787;53.316;8.670;2023-12-04T03:40:10;38.97;;;16.92;;
46815;SDS011;32787;53.316;8.670;2023-12-04T03:42:36;36.00;;;16.35;;
46815;SDS011;32787;53.316;8.670;2023-12-04T03:45:02;40.08;;;18.40;;
46815;SDS011;32787;53.316;8.670;2023-12-04T03:47:28;36.50;;;16.55;;
46815;SDS011;32787;53.316;8.670;2023-12-04T03:49:54;35.58;;;15.77;;
46815;SDS011;32787;53.316;8.670;2023-12-04T03:52:19;36.40;;;15.98;;
46815;SDS011;32787;53.316;8.670;2023-12-04T03:54:45;38.03;;;16.73;;
46815;SDS011;32787;53.316;8.670;2023-12-04T03:57:11;35.42;;;16.23;;
46815;SDS011;32787;53.316;8.670;2023-12-04T03:59:36;33.05;;;14.98;;
46815;SDS011;32787;53.316;8.670;2023-12-04T04:02:02;39.13;;;17.48;;
46815;SDS011;32787;53.316;8.670;2023-12-04T04:04:28;34.67;;;16.48;;
46815;SDS011;32787;53.316;8.670;2023-12-04T04:06:53;35.50;;;16.95;;
46815;SDS011;32787;53.316;8.670;2023-12-04T04:09:19;37.70;;;16.45;;
46815;SDS011;32787;53.316;8.670;2023-12-04T04:11:45;38.20;;;16.95;;
46815;SDS011;32787;53.316;8.670;2023-12-04T04:14:11;37.53;;;16.35;;
46815;SDS011;32787;53.316;8.670;2023-12-04T04:16:36;37.80;;;16.17;;
46815;SDS011;32787;53.316;8.670;2023-12-04T04:19:02;34.85;;;16.83;;
46815;SDS011;32787;53.316;8.670;2023-12-04T04:21:27;37.20;;;17.20;;
46815;SDS011;32787;53.316;8.670;2023-12-04T04:23:53;38.38;;;16.40;;
46815;SDS011;32787;53.316;8.670;2023-12-04T04:26:19;39.22;;;15.90;;
46815;SDS011;32787;53.316;8.670;2023-12-04T04:28:44;34.70;;;16.48;;
46815;SDS011;32787;53.316;8.670;2023-12-04T04:31:10;31.70;;;15.40;;
46815;SDS011;32787;53.316;8.670;2023-12-04T04:33:36;40.05;;;17.23;;
46815;SDS011;32787;53.316;8.670;2023-12-04T04:36:02;36.28;;;16.33;;
46815;SDS011;32787;53.316;8.670;2023-12-04T04:38:27;37.67;;;15.75;;
46815;SDS011;32787;53.316;8.670;2023-12-04T04:40:53;36.70;;;16.52;;
46815;SDS011;32787;53.316;8.670;2023-12-04T04:43:19;39.00;;;17.00;;
46815;SDS011;32787;53.316;8.670;2023-12-04T04:45:45;33.15;;;16.65;;
46815;SDS011;32787;53.316;8.670;2023-12-04T04:48:10;37.13;;;16.08;;
46815;SDS011;32787;53.316;8.670;2023-12-04T04:50:36;39.58;;;17.40;;
46815;SDS011;32787;53.316;8.670;2023-12-04T04:53:02;35.17;;;16.67;;
46815;SDS011;32787;53.316;8.670;2023-12-04T04:55:27;38.35;;;16.73;;
46815;SDS011;32787;53.316;8.670;2023-12-04T04:57:53;37.85;;;15.93;;
46815;SDS011;32787;53.316;8.670;2023-12-04T05:00:19;35.22;;;15.70;;
46815;SDS011;32787;53.316;8.670;2023-12-04T05:02:44;35.92;;;15.90;;
46815;SDS011;32787;53.316;8.670;2023-12-04T05:05:11;35.38;;;16.83;;
46815;SDS011;32787;53.316;8.670;2023-12-04T05:07:36;35.85;;;16.30;;
46815;SDS011;32787;53.316;8.670;2023-12-04T05:10:02;36.05;;;15.85;;
46815;SDS011;32787;53.316;8.670;2023-12-04T05:12:29;39.25;;;15.63;;
46815;SDS011;32787;53.316;8.670;2023-12-04T05:14:54;33.38;;;15.07;;
46815;SDS011;32787;53.316;8.670;2023-12-04T05:17:20;38.38;;;16.85;;
46815;SDS011;32787;53.316;8.670;2023-12-04T05:19:45;36.40;;;16.70;;
46815;SDS011;32787;53.316;8.670;2023-12-04T05:22:11;33.58;;;14.88;;
46815;SDS011;32787;53.316;8.670;2023-12-04T05:24:37;34.40;;;15.10;;
46815;SDS011;32787;53.316;8.670;2023-12-04T05:27:02;30.00;;;15.10;;
46815;SDS011;32787;53.316;8.670;2023-12-04T05:29:28;30.80;;;13.48;;
46815;SDS011;32787;53.316;8.670;2023-12-04T05:31:54;33.17;;;15.60;;
46815;SDS011;32787;53.316;8.670;2023-12-04T05:34:20;36.33;;;14.93;;
46815;SDS011;32787;53.316;8.670;2023-12-04T05:36:45;33.47;;;14.73;;
46815;SDS011;32787;53.316;8.670;2023-12-04T05:39:11;28.40;;;14.73;;
46815;SDS011;32787;53.316;8.670;2023-12-04T05:41:37;33.70;;;15.80;;
46815;SDS011;32787;53.316;8.670;2023-12-04T05:44:02;31.17;;;14.57;;
46815;SDS011;32787;53.316;8.670;2023-12-04T05:46:28;34.47;;;15.07;;
46815;SDS011;32787;53.316;8.670;2023-12-04T05:48:54;35.22;;;15.85;;
46815;SDS011;32787;53.316;8.670;2023-12-04T05:51:19;31.40;;;14.85;;
46815;SDS011;32787;53.316;8.670;2023-12-04T05:53:45;33.35;;;14.48;;
46815;SDS011;32787;53.316;8.670;2023-12-04T05:56:11;33.72;;;15.00;;
46815;SDS011;32787;53.316;8.670;2023-12-04T05:58:36;30.77;;;14.52;;
46815;SDS011;32787;53.316;8.670;2023-12-04T06:01:02;34.90;;;15.38;;
46815;SDS011;32787;53.316;8.670;2023-12-04T06:03:28;35.42;;;16.83;;
46815;SDS011;32787;53.316;8.670;2023-12-04T06:05:54;32.80;;;15.80;;
46815;SDS011;32787;53.316;8.670;2023-12-04T06:08:19;32.58;;;14.98;;
46815;SDS011;32787;53.316;8.670;2023-12-04T06:10:45;33.58;;;15.95;;
46815;SDS011;32787;53.316;8.670;2023-12-04T06:13:11;35.65;;;14.82;;
46815;SDS011;32787;53.316;8.670;2023-12-04T06:15:37;35.40;;;15.25;;
46815;SDS011;32787;53.316;8.670;2023-12-04T06:18:02;36.63;;;15.68;;
46815;SDS011;32787;53.316;8.670;2023-12-04T06:20:29;30.27;;;14.93;;
46815;SDS011;32787;53.316;8.670;2023-12-04T06:22:55;36.72;;;16.08;;
46815;SDS011;32787;53.316;8.670;2023-12-04T06:25:21;32.17;;;15.68;;
46815;SDS011;32787;53.316;8.670;2023-12-04T06:27:47;36.38;;;15.57;;
46815;SDS011;32787;53.316;8.670;2023-12-04T06:30:13;35.97;;;16.55;;
46815;SDS011;32787;53.316;8.670;2023-12-04T06:32:39;31.33;;;14.80;;
46815;SDS011;32787;53.316;8.670;2023-12-04T06:35:05;31.90;;;15.20;;
46815;SDS011;32787;53.316;8.670;2023-12-04T06:37:32;32.13;;;16.17;;
46815;SDS011;32787;53.316;8.670;2023-12-04T06:39:59;32.83;;;14.63;;
46815;SDS011;32787;53.316;8.670;2023-12-04T06:42:27;32.70;;;15.32;;
46815;SDS011;32787;53.316;8.670;2023-12-04T06:44:53;32.70;;;15.40;;
46815;SDS011;32787;53.316;8.670;2023-12-04T06:47:20;36.15;;;15.93;;
46815;SDS011;32787;53.316;8.670;2023-12-04T06:49:48;33.72;;;14.60;;
46815;SDS011;32787;53.316;8.670;2023-12-04T06:52:13;34.33;;;15.45;;
46815;SDS011;32787;53.316;8.670;2023-12-04T06:54:39;33.22;;;15.30;;
46815;SDS011;32787;53.316;8.670;2023-12-04T06:57:04;33.00;;;15.70;;
46815;SDS011;32787;53.316;8.670;2023-12-04T06:59:30;33.35;;;15.15;;
46815;SDS011;32787;53.316;8.670;2023-12-04T07:01:56;32.13;;;15.38;;
46815;SDS011;32787;53.316;8.670;2023-12-04T07:04:22;31.85;;;14.13;;
46815;SDS011;32787;53.316;8.670;2023-12-04T07:06:48;35.17;;;15.60;;
46815;SDS011;32787;53.316;8.670;2023-12-04T07:09:14;34.22;;;16.48;;
46815;SDS011;32787;53.316;8.670;2023-12-04T07:11:40;34.40;;;16.20;;
46815;SDS011;32787;53.316;8.670;2023-12-04T07:14:05;33.63;;;15.52;;
46815;SDS011;32787;53.316;8.670;2023-12-04T07:16:38;33.35;;;15.10;;
46815;SDS011;32787;53.316;8.670;2023-12-04T07:19:05;31.25;;;15.27;;
46815;SDS011;32787;53.316;8.670;2023-12-04T07:21:30;32.95;;;15.38;;
46815;SDS011;32787;53.316;8.670;2023-12-04T07:23:56;35.20;;;15.85;;
46815;SDS011;32787;53.316;8.670;2023-12-04T07:26:22;32.67;;;16.10;;
46815;SDS011;32787;53.316;8.670;2023-12-04T07:28:47;32.92;;;14.98;;
46815;SDS011;32787;53.316;8.670;2023-12-04T07:31:13;32.58;;;14.98;;
46815;SDS011;32787;53.316;8.670;2023-12-04T07:33:38;35.08;;;16.55;;
46815;SDS011;32787;53.316;8.670;2023-12-04T07:36:04;37.58;;;15.52;;
46815;SDS011;32787;53.316;8.670;2023-12-04T07:38:30;34.05;;;15.68;;
46815;SDS011;32787;53.316;8.670;2023-12-04T07:40:55;38.15;;;17.02;;
46815;SDS011;32787;53.316;8.670;2023-12-04T07:43:21;32.33;;;15.63;;
46815;SDS011;32787;53.316;8.670;2023-12-04T07:45:47;36.05;;;15.77;;
46815;SDS011;32787;53.316;8.670;2023-12-04T07:48:12;33.10;;;15.63;;
46815;SDS011;32787;53.316;8.670;2023-12-04T07:50:38;32.17;;;14.93;;
46815;SDS011;32787;53.316;8.670;2023-12-04T07:53:04;33.33;;;14.95;;
46815;SDS011;32787;53.316;8.670;2023-12-04T07:55:30;31.95;;;14.75;;
46815;SDS011;32787;53.316;8.670;2023-12-04T07:57:56;31.27;;;14.15;;
46815;SDS011;32787;53.316;8.670;2023-12-04T08:00:21;32.25;;;13.85;;
46815;SDS011;32787;53.316;8.670;2023-12-04T08:02:51;30.48;;;15.23;;
46815;SDS011;32787;53.316;8.670;2023-12-04T08:05:16;28.80;;;13.70;;
46815;SDS011;32787;53.316;8.670;2023-12-04T08:07:42;32.58;;;15.00;;
46815;SDS011;32787;53.316;8.670;2023-12-04T08:10:08;29.20;;;14.25;;
46815;SDS011;32787;53.316;8.670;2023-12-04T08:12:34;28.75;;;13.88;;
46815;SDS011;32787;53.316;8.670;2023-12-04T08:14:59;29.58;;;13.48;;
46815;SDS011;32787;53.316;8.670;2023-12-04T08:17:26;28.38;;;13.88;;
46815;SDS011;32787;53.316;8.670;2023-12-04T08:19:52;34.50;;;14.85;;
46815;SDS011;32787;53.316;8.670;2023-12-04T08:22:19;29.48;;;14.15;;
46815;SDS011;32787;53.316;8.670;2023-12-04T08:24:44;31.00;;;14.50;;
46815;SDS011;32787;53.316;8.670;2023-12-04T08:27:10;30.50;;;13.63;;
46815;SDS011;32787;53.316;8.670;2023-12-04T08:29:36;28.92;;;13.75;;
46815;SDS011;32787;53.316;8.670;2023-12-04T08:32:01;28.73;;;14.15;;
46815;SDS011;32787;53.316;8.670;2023-12-04T08:34:27;36.00;;;15.20;;
46815;SDS011;32787;53.316;8.670;2023-12-04T08:36:53;28.85;;;13.45;;
46815;SDS011;32787;53.316;8.670;2023-12-04T08:39:18;31.42;;;15.63;;
46815;SDS011;32787;53.316;8.670;2023-12-04T08:41:45;49.85;;;24.08;;
46815;SDS011;32787;53.316;8.670;2023-12-04T08:44:12;42.80;;;21.85;;
46815;SDS011;32787;53.316;8.670;2023-12-04T08:46:38;30.90;;;14.70;;
46815;SDS011;32787;53.316;8.670;2023-12-04T08:49:03;30.30;;;14.43;;
46815;SDS011;32787;53.316;8.670;2023-12-04T08:51:29;29.70;;;14.57;;
46815;SDS011;32787;53.316;8.670;2023-12-04T08:53:55;30.23;;;13.75;;
46815;SDS011;32787;53.316;8.670;2023-12-04T08:56:22;30.35;;;13.60;;
46815;SDS011;32787;53.316;8.670;2023-12-04T08:58:48;26.88;;;13.50;;
46815;SDS011;32787;53.316;8.670;2023-12-04T09:01:15;32.55;;;14.43;;
46815;SDS011;32787;53.316;8.670;2023-12-04T09:03:41;30.42;;;13.93;;
46815;SDS011;32787;53.316;8.670;2023-12-04T09:06:07;27.45;;;13.02;;
46815;SDS011;32787;53.316;8.670;2023-12-04T09:08:32;29.20;;;13.63;;
46815;SDS011;32787;53.316;8.670;2023-12-04T09:10:59;27.42;;;12.85;;
46815;SDS011;32787;53.316;8.670;2023-12-04T09:13:25;28.10;;;13.43;;
46815;SDS011;32787;53.316;8.670;2023-12-04T09:15:51;26.02;;;12.88;;
46815;SDS011;32787;53.316;8.670;2023-12-04T09:18:17;25.70;;;12.45;;
46815;SDS011;32787;53.316;8.670;2023-12-04T09:20:43;27.33;;;12.57;;
46815;SDS011;32787;53.316;8.670;2023-12-04T09:23:09;30.02;;;13.13;;
46815;SDS011;32787;53.316;8.670;2023-12-04T09:25:35;27.73;;;13.20;;
46815;SDS011;32787;53.316;8.670;2023-12-04T09:28:01;26.25;;;13.40;;
46815;SDS011;32787;53.316;8.670;2023-12-04T09:30:27;28.05;;;12.75;;
46815;SDS011;32787;53.316;8.670;2023-12-04T09:32:53;28.45;;;13.73;;
46815;SDS011;32787;53.316;8.670;2023-12-04T09:35:19;26.45;;;12.40;;
46815;SDS011;32787;53.316;8.670;2023-12-04T09:37:45;26.30;;;12.73;;
46815;SDS011;32787;53.316;8.670;2023-12-04T09:40:11;28.60;;;13.32;;
46815;SDS011;32787;53.316;8.670;2023-12-04T09:42:37;25.55;;;11.82;;
46815;SDS011;32787;53.316;8.670;2023-12-04T09:45:04;25.25;;;11.77;;
46815;SDS011;32787;53.316;8.670;2023-12-04T09:47:32;25.90;;;13.50;;
46815;SDS011;32787;53.316;8.670;2023-12-04T09:49:59;26.08;;;13.77;;
46815;SDS011;32787;53.316;8.670;2023-12-04T09:52:27;26.83;;;12.60;;
46815;SDS011;32787;53.316;8.670;2023-12-04T09:54:52;26.55;;;13.10;;
46815;SDS011;32787;53.316;8.670;2023-12-04T09:57:18;26.23;;;12.55;;
46815;SDS011;32787;53.316;8.670;2023-12-04T09:59:44;26.30;;;12.80;;
46815;SDS011;32787;53.316;8.670;2023-12-04T10:02:11;25.48;;;12.05;;
46815;SDS011;32787;53.316;8.670;2023-12-04T10:04:37;24.45;;;11.50;;
46815;SDS011;32787;53.316;8.670;2023-12-04T10:07:03;25.45;;;11.48;;
46815;SDS011;32787;53.316;8.670;2023-12-04T10:09:29;27.13;;;12.63;;
46815;SDS011;32787;53.316;8.670;2023-12-04T10:11:55;27.58;;;11.68;;
46815;SDS011;32787;53.316;8.670;2023-12-04T10:14:22;26.65;;;12.15;;
46815;SDS011;32787;53.316;8.670;2023-12-04T10:16:48;23.63;;;11.52;;
46815;SDS011;32787;53.316;8.670;2023-12-04T10:19:15;27.88;;;12.82;;
46815;SDS011;32787;53.316;8.670;2023-12-04T10:21:48;22.35;;;11.00;;
46815;SDS011;32787;53.316;8.670;2023-12-04T10:24:28;23.58;;;11.13;;
46815;SDS011;32787;53.316;8.670;2023-12-04T10:29:21;26.50;;;11.05;;
46815;SDS011;32787;53.316;8.670;2023-12-04T10:31:47;22.70;;;11.60;;
46815;SDS011;32787;53.316;8.670;2023-12-04T10:34:15;26.25;;;11.20;;
46815;SDS011;32787;53.316;8.670;2023-12-04T10:36:41;23.70;;;10.95;;
46815;SDS011;32787;53.316;8.670;2023-12-04T10:39:07;28.23;;;12.43;;
46815;SDS011;32787;53.316;8.670;2023-12-04T10:41:33;23.92;;;11.80;;
46815;SDS011;32787;53.316;8.670;2023-12-04T10:44:00;24.83;;;11.45;;
46815;SDS011;32787;53.316;8.670;2023-12-04T10:46:26;21.50;;;10.57;;
46815;SDS011;32787;53.316;8.670;2023-12-04T10:48:52;23.98;;;12.13;;
46815;SDS011;32787;53.316;8.670;2023-12-04T10:51:19;22.48;;;11.73;;
46815;SDS011;32787;53.316;8.670;2023-12-04T10:53:47;21.08;;;11.15;;
46815;SDS011;32787;53.316;8.670;2023-12-04T10:56:19;25.33;;;11.48;;
46815;SDS011;32787;53.316;8.670;2023-12-04T10:58:58;25.70;;;11.77;;
46815;SDS011;32787;53.316;8.670;2023-12-04T11:01:27;24.52;;;11.63;;
46815;SDS011;32787;53.316;8.670;2023-12-04T11:03:56;24.50;;;11.18;;
46815;SDS011;32787;53.316;8.670;2023-12-04T11:06:26;21.30;;;10.85;;
46815;SDS011;32787;53.316;8.670;2023-12-04T11:08:56;21.15;;;9.93;;
46815;SDS011;32787;53.316;8.670;2023-12-04T11:11:30;22.60;;;11.18;;
46815;SDS011;32787;53.316;8.670;2023-12-04T11:14:04;23.58;;;11.20;;
46815;SDS011;32787;53.316;8.670;2023-12-04T11:16:39;21.98;;;10.20;;
46815;SDS011;32787;53.316;8.670;2023-12-04T11:19:18;23.35;;;10.63;;
46815;SDS011;32787;53.316;8.670;2023-12-04T11:21:50;19.75;;;10.73;;
46815;SDS011;32787;53.316;8.670;2023-12-04T11:24:18;21.67;;;10.52;;
46815;SDS011;32787;53.316;8.670;2023-12-04T11:26:43;22.85;;;11.43;;
46815;SDS011;32787;53.316;8.670;2023-12-04T11:29:10;22.77;;;11.30;;
46815;SDS011;32787;53.316;8.670;2023-12-04T11:31:38;20.13;;;10.18;;
46815;SDS011;32787;53.316;8.670;2023-12-04T11:34:03;21.65;;;10.50;;
46815;SDS011;32787;53.316;8.670;2023-12-04T11:36:30;23.77;;;11.15;;
46815;SDS011;32787;53.316;8.670;2023-12-04T11:38:55;21.60;;;10.50;;
46815;SDS011;32787;53.316;8.670;2023-12-04T11:41:24;21.60;;;10.73;;
46815;SDS011;32787;53.316;8.670;2023-12-04T11:43:51;20.15;;;10.32;;
46815;SDS011;32787;53.316;8.670;2023-12-04T11:46:21;21.63;;;11.00;;
46815;SDS011;32787;53.316;8.670;2023-12-04T11:48:48;19.83;;;10.23;;
46815;SDS011;32787;53.316;8.670;2023-12-04T11:52:00;20.65;;;11.05;;
46815;SDS011;32787;53.316;8.670;2023-12-04T11:54:03;22.48;;;10.40;;
46815;SDS011;32787;53.316;8.670;2023-12-04T11:56:30;19.98;;;10.27;;
46815;SDS011;32787;53.316;8.670;2023-12-04T11:59:02;21.50;;;10.52;;
46815;SDS011;32787;53.316;8.670;2023-12-04T12:01:28;21.08;;;10.18;;
46815;SDS011;32787;53.316;8.670;2023-12-04T12:03:58;22.05;;;10.35;;
46815;SDS011;32787;53.316;8.670;2023-12-04T12:06:24;21.42;;;10.05;;
46815;SDS011;32787;53.316;8.670;2023-12-04T12:08:50;21.17;;;11.30;;
46815;SDS011;32787;53.316;8.670;2023-12-04T12:11:16;21.25;;;11.60;;
46815;SDS011;32787;53.316;8.670;2023-12-04T12:13:42;22.60;;;12.02;;
46815;SDS011;32787;53.316;8.670;2023-12-04T12:16:09;19.45;;;10.68;;
46815;SDS011;32787;53.316;8.670;2023-12-04T12:18:36;20.55;;;10.50;;
46815;SDS011;32787;53.316;8.670;2023-12-04T12:21:02;21.92;;;11.30;;
46815;SDS011;32787;53.316;8.670;2023-12-04T12:23:28;22.63;;;10.05;;
46815;SDS011;32787;53.316;8.670;2023-12-04T12:25:54;20.38;;;11.00;;
46815;SDS011;32787;53.316;8.670;2023-12-04T12:28:20;21.48;;;10.43;;
46815;SDS011;32787;53.316;8.670;2023-12-04T12:30:45;20.20;;;10.23;;
46815;SDS011;32787;53.316;8.670;2023-12-04T12:33:15;22.50;;;10.68;;
46815;SDS011;32787;53.316;8.670;2023-12-04T12:35:41;21.02;;;10.40;;
46815;SDS011;32787;53.316;8.670;2023-12-04T12:38:07;21.38;;;11.32;;
46815;SDS011;32787;53.316;8.670;2023-12-04T12:40:33;24.08;;;10.52;;
46815;SDS011;32787;53.316;8.670;2023-12-04T12:43:08;18.30;;;9.60;;
46815;SDS011;32787;53.316;8.670;2023-12-04T12:45:43;23.08;;;10.60;;
46815;SDS011;32787;53.316;8.670;2023-12-04T12:48:16;22.85;;;10.23;;
46815;SDS011;32787;53.316;8.670;2023-12-04T12:50:43;19.85;;;9.90;;
46815;SDS011;32787;53.316;8.670;2023-12-04T12:53:12;24.13;;;11.88;;
46815;SDS011;32787;53.316;8.670;2023-12-04T12:55:40;21.60;;;10.68;;
46815;SDS011;32787;53.316;8.670;2023-12-04T12:58:12;22.00;;;10.93;;
46815;SDS011;32787;53.316;8.670;2023-12-04T13:00:42;23.25;;;11.15;;
46815;SDS011;32787;53.316;8.670;2023-12-04T13:03:14;21.23;;;10.68;;
46815;SDS011;32787;53.316;8.670;2023-12-04T13:05:41;23.08;;;12.30;;
46815;SDS011;32787;53.316;8.670;2023-12-04T13:08:07;21.45;;;11.23;;
46815;SDS011;32787;53.316;8.670;2023-12-04T13:10:32;20.48;;;9.73;;
46815;SDS011;32787;53.316;8.670;2023-12-04T13:12:58;18.80;;;9.98;;
46815;SDS011;32787;53.316;8.670;2023-12-04T13:15:25;20.92;;;10.68;;
46815;SDS011;32787;53.316;8.670;2023-12-04T13:17:54;22.08;;;10.77;;
46815;SDS011;32787;53.316;8.670;2023-12-04T13:20:19;21.65;;;10.88;;
46815;SDS011;32787;53.316;8.670;2023-12-04T13:22:45;20.42;;;10.73;;
46815;SDS011;32787;53.316;8.670;2023-12-04T13:25:11;21.02;;;10.70;;
46815;SDS011;32787;53.316;8.670;2023-12-04T13:27:37;17.45;;;9.73;;
46815;SDS011;32787;53.316;8.670;2023-12-04T13:30:08;21.02;;;9.68;;
46815;SDS011;32787;53.316;8.670;2023-12-04T13:32:35;23.15;;;11.48;;
46815;SDS011;32787;53.316;8.670;2023-12-04T13:35:02;22.63;;;10.43;;
46815;SDS011;32787;53.316;8.670;2023-12-04T13:37:30;20.13;;;10.50;;
46815;SDS011;32787;53.316;8.670;2023-12-04T13:39:56;19.77;;;8.98;;
46815;SDS011;32787;53.316;8.670;2023-12-04T13:42:29;22.35;;;10.43;;
46815;SDS011;32787;53.316;8.670;2023-12-04T13:45:13;21.80;;;9.70;;
46815;SDS011;32787;53.316;8.670;2023-12-04T13:47:39;21.17;;;10.38;;
46815;SDS011;32787;53.316;8.670;2023-12-04T13:50:07;17.52;;;8.98;;
46815;SDS011;32787;53.316;8.670;2023-12-04T13:52:34;18.63;;;9.25;;
46815;SDS011;32787;53.316;8.670;2023-12-04T13:55:00;19.75;;;10.20;;
46815;SDS011;32787;53.316;8.670;2023-12-04T13:57:27;17.17;;;9.35;;
46815;SDS011;32787;53.316;8.670;2023-12-04T13:59:58;17.48;;;9.05;;
46815;SDS011;32787;53.316;8.670;2023-12-04T14:02:24;19.40;;;10.27;;
46815;SDS011;32787;53.316;8.670;2023-12-04T14:04:50;20.23;;;9.85;;
46815;SDS011;32787;53.316;8.670;2023-12-04T14:07:17;24.52;;;11.02;;
46815;SDS011;32787;53.316;8.670;2023-12-04T14:09:43;18.98;;;10.05;;
46815;SDS011;32787;53.316;8.670;2023-12-04T14:12:12;19.88;;;9.45;;
46815;SDS011;32787;53.316;8.670;2023-12-04T14:14:41;20.60;;;9.27;;
46815;SDS011;32787;53.316;8.670;2023-12-04T14:17:06;19.33;;;10.48;;
46815;SDS011;32787;53.316;8.670;2023-12-04T14:19:34;19.58;;;10.05;;